Time;durP1;ratioP1;P1;durP2;ratioP2;P2;SDS_P1;SDS_P2;PMS_P1;PMS_P2;Temp;Humidity;BMP_temperature;BMP_pressure;BME280_temperature;BME280_humidity;BME280_pressure;Samples;Min_cycle;Max_cycle;Signal;HPM_P1;HPM_P2
2022/07/19 00:04:48;;;;;;;20.70;8.00;;;;;;;21.61;71.19;101219.80;5161335;56;1141068;-68
2022/07/19 00:09:54;;;;;;;20.88;8.40;;;;;;;21.61;71.14;101226.53;5149662;56;1141341;-67
2022/07/19 00:15:00;;;;;;;19.82;9.48;;;;;;;21.54;71.24;101222.34;5149466;56;1141086;-67
2022/07/19 00:20:08;;;;;;;19.23;8.45;;;;;;;21.49;71.75;101217.16;5149583;56;1141236;-68
2022/07/19 00:25:14;;;;;;;16.60;7.72;;;;;;;21.57;72.43;101209.88;5083069;57;1141089;-68
2022/07/19 00:30:20;;;;;;;23.67;8.90;;;;;;;21.67;72.48;101213.23;5071714;57;1141100;-70
2022/07/19 00:35:26;;;;;;;17.84;8.34;;;;;;;21.68;72.30;101211.38;5118503;57;1141063;-67
2022/07/19 00:40:32;;;;;;;31.25;11.20;;;;;;;21.60;71.96;101207.36;5156036;56;1141020;-68
2022/07/19 00:45:39;;;;;;;49.75;19.55;;;;;;;21.45;71.73;101205.89;5200739;56;1143165;-67
2022/07/19 00:50:44;;;;;;;60.92;22.60;;;;;;;21.27;71.96;101208.79;5196765;56;1143132;-67
2022/07/19 00:55:53;;;;;;;57.33;22.60;;;;;;;21.19;72.56;101206.13;5157351;57;1143497;-67
2022/07/19 01:00:58;;;;;;;25.62;12.00;;;;;;;21.12;73.11;101205.09;5155924;57;1143444;-67
2022/07/19 01:06:05;;;;;;;23.20;9.93;;;;;;;21.06;73.63;101208.48;5156071;57;1143244;-68
2022/07/19 01:11:10;;;;;;;34.98;13.38;;;;;;;21.16;74.62;101194.33;5125355;57;1141152;-68
2022/07/19 01:16:17;;;;;;;40.80;16.57;;;;;;;21.31;74.79;101199.87;5159428;57;1141112;-68
2022/07/19 01:21:26;;;;;;;84.07;32.70;;;;;;;21.28;74.31;101198.36;5190581;56;1141133;-67
2022/07/19 01:26:32;;;;;;;88.35;36.33;;;;;;;21.19;74.26;101195.38;5162734;57;1141403;-67
2022/07/19 01:31:40;;;;;;;53.95;23.30;;;;;;;21.22;74.79;101197.73;5123860;57;1141276;-68
2022/07/19 01:36:46;;;;;;;15.72;7.00;;;;;;;21.27;75.03;101187.27;5130498;57;1141411;-67
2022/07/19 01:41:51;;;;;;;10.95;6.85;;;;;;;21.32;74.93;101189.45;5162607;57;1139025;-68
2022/07/19 01:46:57;;;;;;;45.66;14.38;;;;;;;21.31;74.82;101187.77;5100686;57;1139018;-67
2022/07/19 01:52:03;;;;;;;51.13;20.77;;;;;;;21.16;74.75;101177.35;5162676;56;1141203;-68
2022/07/19 01:57:10;;;;;;;76.75;27.77;;;;;;;21.03;75.05;101179.23;5120940;57;1141275;-68
2022/07/19 02:02:16;;;;;;;40.48;14.73;;;;;;;21.05;75.84;101176.71;5088228;57;1141461;-68
2022/07/19 02:07:21;;;;;;;19.75;9.08;;;;;;;21.13;76.20;101177.19;5152089;56;1141419;-68
2022/07/19 02:12:27;;;;;;;12.40;7.25;;;;;;;21.19;76.02;101168.94;5091579;56;1139078;-67
2022/07/19 02:17:33;;;;;;;5.28;4.47;;;;;;;21.18;75.76;101173.48;5111317;57;1139185;-68
2022/07/19 02:22:39;;;;;;;5.50;3.65;;;;;;;21.21;75.78;101176.37;5135391;56;1136989;-67
2022/07/19 02:27:45;;;;;;;23.80;6.17;;;;;;;21.17;75.53;101181.22;5158521;56;1137101;-67
2022/07/19 02:32:50;;;;;;;17.85;5.05;;;;;;;21.19;75.38;101183.27;5161781;56;1139152;-68
2022/07/19 02:37:56;;;;;;;14.78;6.53;;;;;;;21.18;75.23;101178.86;5046206;58;1139553;-68
2022/07/19 02:43:02;;;;;;;31.25;6.85;;;;;;;21.12;75.09;101184.91;5141013;57;1137187;-68
2022/07/19 02:48:10;;;;;;;37.80;6.62;;;;;;;21.05;75.10;101183.94;5017782;58;1137283;-67
2022/07/19 02:53:16;;;;;;;22.13;5.95;;;;;;;20.95;75.13;101184.61;5066873;58;1141192;-69
2022/07/19 02:58:22;;;;;;;51.30;7.53;;;;;;;20.83;75.05;101186.81;5042102;58;1144626;-68
2022/07/19 03:03:43;;;;;;;46.68;7.83;;;;;;;20.68;75.17;101183.13;5076408;58;1141531;-68
2022/07/19 03:08:49;;;;;;;30.27;6.72;;;;;;;20.56;75.36;101189.84;5076377;58;1141370;-67
2022/07/19 03:13:56;;;;;;;72.30;12.82;;;;;;;20.44;75.40;101188.00;5076375;58;1141543;-67
2022/07/19 03:19:01;;;;;;;48.25;12.35;;;;;;;20.39;76.01;101191.68;5075753;57;1143249;-67
2022/07/19 03:24:07;;;;;;;25.70;6.78;;;;;;;20.39;76.65;101186.30;5002112;58;1143385;-67
2022/07/19 03:29:13;;;;;;;32.60;8.75;;;;;;;20.33;76.72;101190.45;5066747;57;1141200;-67
2022/07/19 03:34:19;;;;;;;14.50;5.55;;;;;;;20.30;77.24;101188.63;5065783;56;1141463;-67
2022/07/19 03:39:25;;;;;;;15.00;5.40;;;;;;;20.23;77.45;101179.03;5005638;57;1141395;-67
2022/07/19 03:44:31;;;;;;;6.37;4.55;;;;;;;20.15;77.79;101183.56;5006447;58;1141218;-67
2022/07/19 03:49:37;;;;;;;13.90;5.03;;;;;;;20.11;78.13;101185.73;4972089;58;1139039;-67
2022/07/19 03:54:43;;;;;;;19.40;5.53;;;;;;;20.12;78.55;101176.67;5076091;57;1141090;-67
2022/07/19 03:59:49;;;;;;;25.75;6.60;;;;;;;20.11;78.79;101172.30;5031000;58;1141037;-67
2022/07/19 04:04:54;;;;;;;32.78;6.80;;;;;;;20.12;78.99;101170.45;4969969;58;1140945;-68
2022/07/19 04:10:00;;;;;;;42.15;8.90;;;;;;;20.10;78.78;101176.48;5073602;57;1141430;-67
2022/07/19 04:15:07;;;;;;;30.48;7.10;;;;;;;20.14;78.97;101177.34;5048855;58;1141368;-67
2022/07/19 04:20:13;;;;;;;25.05;5.47;;;;;;;20.21;79.09;101175.67;5222472;56;1141362;-67
2022/07/19 04:25:21;;;;;;;6.72;3.83;;;;;;;20.27;79.12;101173.67;5179491;56;1141211;-67
2022/07/19 04:30:27;;;;;;;13.03;4.03;;;;;;;20.25;78.49;101165.44;5179631;56;1139033;-67
2022/07/19 04:35:33;;;;;;;9.30;4.65;;;;;;;20.18;78.54;101165.75;5151139;56;1141112;-67
2022/07/19 04:40:39;;;;;;;9.43;4.60;;;;;;;20.14;78.45;101168.45;5174428;56;1139320;-67
2022/07/19 04:45:45;;;;;;;9.53;4.42;;;;;;;20.13;78.24;101172.14;5170003;56;1139485;-67
2022/07/19 04:50:51;;;;;;;6.87;5.03;;;;;;;20.11;77.70;101172.80;5136588;56;1139220;-67
2022/07/19 04:55:57;;;;;;;9.25;5.72;;;;;;;19.93;77.48;101176.45;5087137;57;1138937;-67
2022/07/19 05:01:03;;;;;;;14.90;6.72;;;;;;;19.80;78.01;101176.08;5056552;57;1139001;-68
2022/07/19 05:06:08;;;;;;;23.18;7.65;;;;;;;19.75;79.00;101178.41;5041189;57;1141110;-67
2022/07/19 05:11:14;;;;;;;19.10;7.83;;;;;;;19.85;79.50;101176.44;5157952;57;1141296;-67
2022/07/19 05:16:19;;;;;;;12.28;4.30;;;;;;;19.82;78.85;101179.45;5188156;56;1141078;-68
2022/07/19 05:21:25;;;;;;;5.53;3.55;;;;;;;19.85;78.56;101185.00;5208795;56;1141093;-67
2022/07/19 05:26:33;;;;;;;4.15;3.55;;;;;;;19.92;78.44;101184.66;5219416;56;1139064;-67
2022/07/19 05:31:38;;;;;;;7.55;4.15;;;;;;;19.95;77.35;101177.13;5183863;56;1139246;-67
2022/07/19 05:36:44;;;;;;;9.53;3.80;;;;;;;20.05;76.32;101179.66;5136878;56;1139026;-67
2022/07/19 05:41:50;;;;;;;13.28;3.50;;;;;;;20.19;75.03;101172.30;5133690;56;1138977;-68
2022/07/19 05:46:56;;;;;;;4.17;3.35;;;;;;;20.40;74.25;101184.46;5193565;56;1141368;-67
2022/07/19 05:52:02;;;;;;;6.83;3.83;;;;;;;20.56;73.79;101179.09;5133400;56;1139537;-68
2022/07/19 05:57:07;;;;;;;9.35;4.20;;;;;;;20.78;73.30;101179.75;5133655;56;1139273;-68
2022/07/19 06:02:14;;;;;;;13.75;4.87;;;;;;;21.05;71.82;101178.05;5133569;56;1137297;-67
2022/07/19 06:07:20;;;;;;;7.58;3.62;;;;;;;21.31;70.91;101179.70;5148985;57;1139634;-67
2022/07/19 06:12:26;;;;;;;9.78;4.35;;;;;;;21.54;69.70;101184.65;5155895;56;1136966;-67
2022/07/19 06:17:31;;;;;;;7.90;4.05;;;;;;;21.73;67.47;101180.20;5181424;56;1136927;-68
2022/07/19 06:22:39;;;;;;;9.53;3.65;;;;;;;21.93;67.94;101181.96;5250052;55;1136352;-67
2022/07/19 06:27:45;;;;;;;10.88;4.10;;;;;;;22.16;67.13;101179.31;5155563;56;1136933;-68
2022/07/19 06:32:51;;;;;;;5.80;4.33;;;;;;;22.41;66.70;101182.20;5111553;57;1139055;-68
2022/07/19 06:37:56;;;;;;;9.60;3.98;;;;;;;22.63;64.93;101179.14;5171805;56;1136950;-67
2022/07/19 06:43:02;;;;;;;5.85;3.70;;;;;;;22.88;63.44;101177.11;5184854;56;1136945;-68
2022/07/19 06:48:09;;;;;;;8.32;3.66;;;;;;;23.13;61.82;101184.44;5200785;55;1136994;-68
2022/07/19 06:53:15;;;;;;;12.07;4.00;;;;;;;23.35;63.03;101182.19;5182194;55;1137212;-68
2022/07/19 06:58:20;;;;;;;7.75;4.40;;;;;;;23.59;62.32;101170.27;5178331;55;1139310;-68
2022/07/19 07:03:26;;;;;;;5.53;4.10;;;;;;;23.85;60.25;101169.24;5189577;55;1137203;-68
2022/07/19 07:08:33;;;;;;;5.25;3.42;;;;;;;24.06;58.81;101173.02;5184176;55;1137261;-68
2022/07/19 07:13:39;;;;;;;13.22;4.08;;;;;;;24.24;58.39;101163.16;5161285;56;1137195;-68
2022/07/19 07:18:45;;;;;;;9.55;3.20;;;;;;;24.49;56.98;101167.14;5142363;56;1139016;-68
2022/07/19 07:23:50;;;;;;;14.65;3.30;;;;;;;24.75;54.92;101165.20;5201900;56;1136993;-68
2022/07/19 07:28:56;;;;;;;6.42;2.90;;;;;;;24.97;54.74;101164.14;5196498;56;1139269;-68
2022/07/19 07:34:02;;;;;;;11.15;2.55;;;;;;;25.24;53.34;101154.31;5218814;56;1134952;-68
2022/07/19 07:39:08;;;;;;;4.17;2.62;;;;;;;25.48;51.91;101161.12;5231922;55;1137422;-68
2022/07/19 07:44:14;;;;;;;9.38;2.90;;;;;;;25.70;50.38;101167.28;5156837;56;1139291;-70
2022/07/19 07:49:21;;;;;;;8.83;2.50;;;;;;;25.92;48.25;101162.06;5219890;56;1138831;-69
2022/07/19 07:54:26;;;;;;;4.33;2.67;;;;;;;26.12;48.58;101160.77;5219667;56;1138947;-67
2022/07/19 07:59:32;;;;;;;7.10;3.30;;;;;;;26.32;47.66;101163.00;5189151;56;1139030;-68
2022/07/19 08:04:38;;;;;;;15.05;2.42;;;;;;;26.51;47.26;101160.00;5219691;56;1138956;-68
2022/07/19 08:09:43;;;;;;;4.62;3.08;;;;;;;26.67;46.29;101160.95;5199834;56;1141111;-69
2022/07/19 08:14:49;;;;;;;5.97;2.72;;;;;;;26.81;45.49;101161.26;5134061;57;1138948;-68
2022/07/19 08:19:55;;;;;;;6.80;2.50;;;;;;;27.01;46.58;101155.84;5134067;57;1139247;-68
2022/07/19 08:25:01;;;;;;;2.75;2.55;;;;;;;27.10;44.55;101155.09;5055873;57;1139223;-68
2022/07/19 08:30:07;;;;;;;4.37;2.05;;;;;;;27.23;44.40;101155.05;5133983;56;1139332;-68
2022/07/19 08:35:13;;;;;;;4.10;3.00;;;;;;;27.43;43.49;101160.44;5158238;56;1139290;-69
2022/07/19 08:40:19;;;;;;;4.60;2.30;;;;;;;27.50;44.01;101145.77;5059621;57;1139222;-68
2022/07/19 08:45:27;;;;;;;3.75;2.58;;;;;;;27.64;39.90;101154.23;5042731;58;1139307;-69
2022/07/19 08:50:34;;;;;;;9.00;2.33;;;;;;;27.66;39.39;101144.48;5056467;57;1139345;-68
2022/07/19 08:55:40;;;;;;;4.58;2.50;;;;;;;27.81;39.62;101142.84;5058532;57;1139116;-68
2022/07/19 09:00:46;;;;;;;9.18;2.50;;;;;;;27.99;40.39;101138.87;5055120;57;1139302;-69
2022/07/19 09:06:04;;;;;;;2.72;2.08;;;;;;;28.09;37.38;101136.54;5055013;58;1139298;-68
2022/07/19 09:11:16;;;;;;;4.78;2.70;;;;;;;28.21;36.62;101131.25;5052939;58;1139416;-68
2022/07/19 09:16:22;;;;;;;5.08;2.12;;;;;;;28.28;38.47;101126.05;5052529;58;1139017;-69
2022/07/19 09:21:28;;;;;;;10.80;2.40;;;;;;;28.45;38.39;101126.34;5076941;56;1139030;-70
2022/07/19 09:26:33;;;;;;;2.45;2.10;;;;;;;28.63;38.62;101123.69;5215035;56;1141098;-69
2022/07/19 09:32:01;;;;;;;1.95;1.85;;;;;;;28.84;37.06;101123.02;5168723;56;1139593;-68
2022/07/19 09:37:15;;;;;;;3.47;2.30;;;;;;;28.99;36.43;101116.69;5166797;55;1138986;-68
2022/07/19 09:42:44;;;;;;;5.03;1.87;;;;;;;29.10;35.02;101118.65;5091126;57;1138990;-68
2022/07/19 09:47:50;;;;;;;4.55;2.35;;;;;;;29.19;35.96;101119.16;5078557;57;1139026;-67
2022/07/19 09:52:58;;;;;;;4.87;2.02;;;;;;;29.26;35.48;101121.30;5141886;56;1139312;-68
2022/07/19 09:58:06;;;;;;;2.87;1.90;;;;;;;29.39;34.66;101118.45;5184960;56;1137141;-69
2022/07/19 10:03:14;;;;;;;3.92;2.00;;;;;;;29.52;34.42;101110.10;5196744;56;1136872;-68
2022/07/19 10:08:19;;;;;;;4.15;2.40;;;;;;;29.59;34.90;101105.41;5219381;56;1137202;-68
2022/07/19 10:13:26;;;;;;;6.12;2.62;;;;;;;29.80;35.49;101106.78;5218742;56;1137329;-69
2022/07/19 10:18:37;;;;;;;4.72;1.80;;;;;;;29.99;34.26;101108.96;5177962;56;1137197;-68
2022/07/19 10:23:53;;;;;;;3.47;2.37;;;;;;;30.17;33.52;101104.81;5217365;56;1137035;-68
2022/07/19 10:29:18;;;;;;;2.92;1.70;;;;;;;30.25;33.68;101107.75;5242277;56;1136924;-69
2022/07/19 10:34:24;;;;;;;7.85;2.37;;;;;;;30.58;35.71;101086.72;5217092;56;1137155;-68
2022/07/19 10:39:39;;;;;;;3.95;1.90;;;;;;;30.88;32.53;101093.42;5173654;56;1137230;-68
2022/07/19 10:45:04;;;;;;;2.67;1.80;;;;;;;30.86;31.80;101091.49;5165946;56;1135031;-69
2022/07/19 10:50:17;;;;;;;1.60;1.47;;;;;;;30.90;30.67;101093.48;5165129;56;1138862;-69
2022/07/19 10:55:31;;;;;;;5.42;2.05;;;;;;;30.98;33.65;101073.18;5164818;57;1139055;-69
2022/07/19 11:00:48;;;;;;;2.05;1.77;;;;;;;31.01;31.20;101058.48;5116970;56;1138956;-69
2022/07/19 11:06:01;;;;;;;4.33;2.00;;;;;;;31.15;30.19;101059.64;5138164;56;1138982;-69
2022/07/19 11:11:13;;;;;;;1.80;1.70;;;;;;;31.25;29.97;101052.47;5128205;57;1139553;-68
2022/07/19 11:16:21;;;;;;;5.67;2.08;;;;;;;31.41;29.66;101042.67;5099517;57;1138902;-68
2022/07/19 11:21:31;;;;;;;4.75;2.15;;;;;;;31.53;30.90;101039.88;5178784;56;1139345;-69
2022/07/19 11:26:41;;;;;;;3.02;1.80;;;;;;;31.81;31.01;101037.97;5296394;55;1139047;-71
2022/07/19 11:31:50;;;;;;;1.82;1.70;;;;;;;31.93;28.43;101037.10;5261111;55;1138991;-66
2022/07/19 11:37:00;;;;;;;7.87;1.92;;;;;;;32.18;30.11;101033.41;5217961;56;1138977;-66
2022/07/19 11:42:05;;;;;;;4.03;1.90;;;;;;;32.18;30.11;101033.41;5281529;55;1139386;-66
2022/07/19 11:47:11;;;;;;;5.35;2.45;;;;;;;32.53;29.91;101030.42;5270125;55;1138942;-66
2022/07/19 11:52:18;;;;;;;2.00;1.90;;;;;;;32.58;30.15;101026.37;5306702;55;1138981;-67
2022/07/19 12:10:08;;;;;;;5.80;3.00;;;;;;;32.81;28.89;101030.30;5186097;56;46273;-66
2022/07/19 12:15:13;;;;;;;7.20;2.90;;;;;;;32.96;29.61;101007.75;5028760;58;1134904;-67
2022/07/19 12:20:19;;;;;;;5.65;2.70;;;;;;;33.06;28.28;101016.63;4943690;58;1139283;-67
2022/07/19 12:25:38;;;;;;;4.35;2.30;;;;;;;33.14;27.81;101006.05;5116260;57;1139258;-66
2022/07/19 12:30:45;;;;;;;3.80;2.90;;;;;;;33.14;27.81;101006.05;5116740;57;1139020;-68
2022/07/19 12:35:50;;;;;;;4.60;2.30;;;;;;;33.31;28.96;101005.14;5120326;57;1138913;-68
2022/07/19 12:41:00;;;;;;;2.85;2.65;;;;;;;33.50;28.40;101007.28;5055135;58;1139190;-68
2022/07/19 12:46:06;;;;;;;4.42;2.80;;;;;;;33.47;28.06;101005.05;5075814;57;1139072;-68
2022/07/19 12:51:13;;;;;;;3.40;2.83;;;;;;;33.58;28.83;101002.43;5141985;57;1138885;-68
2022/07/19 12:56:19;;;;;;;6.70;2.92;;;;;;;33.79;28.83;101001.55;5137916;56;1139047;-67
2022/07/19 13:01:24;;;;;;;5.22;2.55;;;;;;;33.88;28.05;100998.08;5119601;57;1139226;-68
2022/07/19 13:06:30;;;;;;;3.20;2.87;;;;;;;33.97;27.31;101007.19;5007164;57;1139061;-67
2022/07/19 13:11:36;;;;;;;3.08;2.80;;;;;;;33.82;26.78;101002.40;4995994;58;1139052;-68
2022/07/19 13:16:41;;;;;;;7.22;3.12;;;;;;;33.88;28.36;100997.25;5068507;57;1139350;-67
2022/07/19 13:21:47;;;;;;;3.62;2.87;;;;;;;33.94;27.81;100994.81;4993021;58;1139076;-67
2022/07/19 13:26:53;;;;;;;4.22;3.08;;;;;;;33.83;28.35;100991.16;4980058;58;1139062;-68
2022/07/19 13:31:59;;;;;;;3.92;3.08;;;;;;;33.89;28.10;100996.16;4902089;59;1139117;-67
2022/07/19 13:37:05;;;;;;;8.43;3.30;;;;;;;34.05;28.76;100989.70;4967504;59;1139146;-68
2022/07/19 13:42:11;;;;;;;5.78;3.35;;;;;;;34.29;28.66;100986.05;5128763;57;1139044;-68
2022/07/19 13:47:18;;;;;;;8.83;3.22;;;;;;;34.37;27.96;100982.82;5163153;56;1139023;-67
2022/07/19 13:52:24;;;;;;;4.87;3.02;;;;;;;34.56;27.89;100981.25;5172456;57;1139047;-68
2022/07/19 13:57:30;;;;;;;4.40;2.72;;;;;;;34.65;27.74;100971.15;5198498;56;1139266;-68
2022/07/19 14:02:37;;;;;;;4.35;3.45;;;;;;;34.55;26.16;100973.28;5191411;57;1138979;-68
2022/07/19 14:07:44;;;;;;;6.12;2.90;;;;;;;34.46;26.71;100971.59;5240069;55;1139044;-67
2022/07/19 14:12:50;;;;;;;6.25;3.52;;;;;;;34.52;26.44;100969.17;5030858;58;1139113;-67
2022/07/19 14:17:56;;;;;;;4.50;2.92;;;;;;;34.38;26.24;100974.00;5164739;56;1139343;-67
2022/07/19 14:23:02;;;;;;;3.08;2.85;;;;;;;34.28;26.56;100969.83;5150953;57;1139136;-67
2022/07/19 14:28:08;;;;;;;2.22;2.12;;;;;;;34.19;25.02;100968.11;5076089;57;1139055;-67
2022/07/19 14:33:14;;;;;;;3.70;2.92;;;;;;;34.19;26.25;100955.75;5090593;57;1139094;-67
2022/07/19 14:38:20;;;;;;;7.10;3.15;;;;;;;34.46;26.89;100959.23;5032649;57;1139206;-68
2022/07/19 14:43:25;;;;;;;4.22;2.80;;;;;;;34.63;26.23;100956.84;4913366;58;1139067;-68
2022/07/19 14:48:31;;;;;;;2.70;2.47;;;;;;;34.62;26.79;100958.77;4895277;60;1137027;-68
2022/07/19 14:53:37;;;;;;;3.10;2.50;;;;;;;34.71;27.25;100962.64;5047103;58;1137006;-68
2022/07/19 14:58:43;;;;;;;3.70;2.62;;;;;;;34.77;27.02;100958.04;5116689;57;1136966;-67
2022/07/19 15:03:49;;;;;;;4.15;2.42;;;;;;;34.71;25.70;100956.31;5205364;56;1136970;-68
2022/07/19 15:08:54;;;;;;;3.60;2.62;;;;;;;34.64;25.91;100966.75;5211882;56;1136962;-67
2022/07/19 15:14:01;;;;;;;7.35;2.72;;;;;;;34.54;26.16;100968.33;5211740;55;1136953;-68
2022/07/19 15:19:07;;;;;;;4.10;2.55;;;;;;;34.50;27.19;100960.91;5196049;56;1137000;-67
2022/07/19 15:24:12;;;;;;;4.25;2.83;;;;;;;34.71;26.94;100954.95;5170752;56;1136919;-66
2022/07/19 15:29:18;;;;;;;3.67;3.30;;;;;;;34.79;26.70;100953.10;5186190;56;1137144;-67
2022/07/19 15:34:24;;;;;;;4.05;2.58;;;;;;;34.90;27.15;100947.91;5225550;56;1137212;-67
2022/07/19 15:39:30;;;;;;;4.97;2.85;;;;;;;34.98;26.36;100945.20;5194515;56;1136351;-68
2022/07/19 15:44:36;;;;;;;6.80;2.62;;;;;;;34.83;25.97;100945.40;5183800;56;1136923;-68
2022/07/19 15:49:41;;;;;;;5.42;3.17;;;;;;;34.70;25.77;100940.38;5209526;56;1137038;-68
2022/07/19 15:54:47;;;;;;;5.55;2.67;;;;;;;34.75;26.57;100949.20;5191348;56;1136998;-66
2022/07/19 15:59:52;;;;;;;4.40;3.40;;;;;;;34.58;26.32;100941.16;5196581;56;1137057;-67
2022/07/19 16:04:59;;;;;;;6.95;2.87;;;;;;;34.44;26.48;100947.69;5149799;57;1137087;-68
2022/07/19 16:10:06;;;;;;;2.72;2.52;;;;;;;34.42;26.97;100948.50;5185269;56;1136865;-68
2022/07/19 16:15:13;;;;;;;4.00;3.50;;;;;;;34.55;27.87;100941.69;5202381;56;1137104;-67
2022/07/19 16:20:19;;;;;;;9.70;3.52;;;;;;;34.64;28.13;100943.39;5205086;57;1134930;-68
2022/07/19 16:25:25;;;;;;;9.33;3.87;;;;;;;34.61;28.83;100937.88;5204939;57;1134950;-66
2022/07/19 16:30:31;;;;;;;12.75;3.25;;;;;;;34.58;28.71;100946.11;5228099;56;21116;-68
2022/07/19 16:35:38;;;;;;;3.50;3.30;;;;;;;34.49;28.54;100939.48;5277569;56;1136871;-69
2022/07/19 16:40:44;;;;;;;4.17;2.67;;;;;;;34.45;29.07;100941.64;5216556;56;1139275;-68
2022/07/19 16:45:50;;;;;;;5.83;3.43;;;;;;;34.38;28.79;100945.99;4978788;58;1139069;-67
2022/07/19 16:50:55;;;;;;;9.53;3.50;;;;;;;34.37;29.17;100949.86;5164020;56;1139019;-67
2022/07/19 16:56:02;;;;;;;3.08;2.87;;;;;;;34.36;29.32;100941.34;5167029;56;1139165;-67
2022/07/19 17:01:08;;;;;;;3.58;3.02;;;;;;;34.36;29.32;100941.34;5231910;56;1138973;-67
2022/07/19 17:06:13;;;;;;;3.65;3.02;;;;;;;34.30;28.74;100947.05;5236599;56;1139164;-68
2022/07/19 17:11:19;;;;;;;4.60;3.02;;;;;;;34.27;29.31;100946.17;5236329;56;1139094;-67
2022/07/19 17:16:24;;;;;;;5.08;3.22;;;;;;;34.20;29.37;100954.66;5130046;57;1138997;-69
2022/07/19 17:21:30;;;;;;;4.65;4.12;;;;;;;34.07;29.25;100949.06;5123591;57;1139039;-66
2022/07/19 17:26:36;;;;;;;3.35;2.83;;;;;;;33.96;29.67;100947.89;5206851;56;1139056;-67
2022/07/19 17:31:42;;;;;;;6.22;3.22;;;;;;;33.85;29.80;100950.57;5196594;56;1138984;-68
2022/07/19 17:36:48;;;;;;;6.47;4.20;;;;;;;33.69;29.53;100951.50;5180445;56;1138985;-69
2022/07/19 17:41:54;;;;;;;10.10;4.87;;;;;;;33.55;29.79;100948.91;5193149;56;1139130;-68
2022/07/19 17:47:00;;;;;;;17.37;4.83;;;;;;;33.41;30.08;100960.02;5193864;56;1141127;-67
2022/07/19 17:52:06;;;;;;;7.40;3.05;;;;;;;33.20;30.27;100952.92;5170929;56;1141140;-69
2022/07/19 17:57:12;;;;;;;6.05;3.02;;;;;;;33.06;30.83;100960.44;5170738;56;1139482;-68
2022/07/19 18:02:18;;;;;;;9.93;3.83;;;;;;;32.89;31.22;100961.05;5174888;56;1139149;-66
2022/07/19 18:07:24;;;;;;;12.50;4.42;;;;;;;32.75;31.43;100964.72;5190561;56;1139009;-69
2022/07/19 18:12:30;;;;;;;15.93;3.92;;;;;;;32.64;32.06;100979.34;5191152;56;1141149;-68
2022/07/19 18:17:36;;;;;;;25.92;4.25;;;;;;;32.45;32.22;100985.11;5253381;55;1141135;-68
2022/07/19 18:22:42;;;;;;;24.40;4.90;;;;;;;32.28;32.59;100983.48;5208907;56;1141370;-69
2022/07/19 18:27:48;;;;;;;22.60;3.65;;;;;;;32.11;32.91;100985.66;5054857;57;1141113;-67
2022/07/19 18:32:54;;;;;;;15.18;3.98;;;;;;;31.96;33.43;100984.59;5059213;57;1141172;-68
2022/07/19 18:38:00;;;;;;;9.35;3.45;;;;;;;31.75;33.79;100993.84;5054727;57;1141030;-68
2022/07/19 18:43:06;;;;;;;15.15;3.50;;;;;;;31.57;34.19;100990.47;4976570;58;1138988;-67
2022/07/19 18:48:28;;;;;;;34.38;4.60;;;;;;;31.36;34.56;100998.28;5197721;57;1141195;-67
2022/07/19 18:53:20;;;;;;;14.33;3.37;;;;;;;31.19;34.87;101003.40;5159009;56;1141115;-69
2022/07/19 18:58:26;;;;;;;18.42;5.72;;;;;;;31.00;35.25;101000.01;5271648;56;1141031;-67
2022/07/19 19:03:32;;;;;;;11.70;5.05;;;;;;;30.76;35.80;101001.41;5206725;56;1141114;-68
2022/07/19 19:08:38;;;;;;;9.80;4.37;;;;;;;30.64;36.43;101014.26;5236256;56;1141147;-68
2022/07/19 19:13:44;;;;;;;9.55;5.70;;;;;;;30.54;36.66;101020.87;5236020;56;1138997;-68
2022/07/19 19:18:50;;;;;;;33.67;9.78;;;;;;;30.33;37.25;101033.17;5171215;56;1139178;-67
2022/07/19 19:23:55;;;;;;;35.52;9.45;;;;;;;30.24;38.47;101031.03;5147044;57;1141263;-68
2022/07/19 19:29:01;;;;;;;21.07;6.20;;;;;;;30.21;40.02;101033.70;5148072;57;1141230;-68
2022/07/19 19:34:07;;;;;;;34.33;6.33;;;;;;;29.92;39.08;101040.86;5149833;57;1141152;-68
2022/07/19 19:39:12;;;;;;;39.33;6.78;;;;;;;29.72;39.54;101038.95;5154104;56;1141204;-68
2022/07/19 19:44:18;;;;;;;41.92;7.15;;;;;;;29.60;39.96;101036.73;5235910;56;1141216;-66
2022/07/19 19:49:24;;;;;;;23.00;5.12;;;;;;;29.67;40.71;101040.17;5236089;56;1141236;-66
2022/07/19 19:54:29;;;;;;;15.23;4.60;;;;;;;29.64;40.83;101040.09;5236294;56;1140980;-67
2022/07/19 19:59:35;;;;;;;13.13;4.50;;;;;;;29.54;41.46;101041.73;5229844;56;1139319;-68
2022/07/19 20:04:41;;;;;;;11.15;5.10;;;;;;;29.47;41.97;101043.20;5231259;56;1138975;-68
2022/07/19 20:09:47;;;;;;;19.98;6.22;;;;;;;29.46;42.33;101040.17;5174021;56;1139008;-68
2022/07/19 20:14:53;;;;;;;25.45;6.65;;;;;;;29.45;42.27;101043.13;5190872;56;1138918;-69
2022/07/19 20:19:59;;;;;;;24.47;6.15;;;;;;;29.38;42.52;101053.57;5165340;56;1139089;-68
2022/07/19 20:25:05;;;;;;;22.07;6.12;;;;;;;29.20;43.47;101048.64;5200990;56;1138995;-68
2022/07/19 20:30:11;;;;;;;22.75;8.13;;;;;;;29.05;44.12;101054.47;5196506;56;1139044;-68
2022/07/19 20:35:17;;;;;;;37.65;10.00;;;;;;;28.91;44.95;101051.60;5108735;57;1139326;-66
2022/07/19 20:40:23;;;;;;;33.30;7.47;;;;;;;28.81;45.83;101051.30;5231747;56;1141079;-67
2022/07/19 20:45:28;;;;;;;22.98;6.55;;;;;;;28.63;44.93;101043.39;5231891;56;1138980;-67
2022/07/19 20:50:34;;;;;;;11.85;6.05;;;;;;;28.23;45.90;101047.02;5200687;56;1139080;-67
2022/07/19 20:55:41;;;;;;;20.23;7.37;;;;;;;28.23;45.90;101047.02;5236202;56;1139007;-68
2022/07/19 21:00:47;;;;;;;21.35;7.25;;;;;;;28.09;46.25;101051.39;5148450;56;1139416;-67
2022/07/19 21:05:53;;;;;;;11.35;6.35;;;;;;;27.92;47.42;101056.01;5147188;56;1139280;-68
2022/07/19 21:10:59;;;;;;;10.98;6.55;;;;;;;27.81;47.95;101055.33;5230970;56;1138987;-67
2022/07/19 21:16:06;;;;;;;29.95;7.75;;;;;;;27.64;48.51;101060.47;5226812;55;1139026;-68
2022/07/19 21:21:12;;;;;;;18.07;7.72;;;;;;;27.59;49.16;101060.81;5188279;55;1138998;-67
2022/07/19 21:26:18;;;;;;;18.75;7.28;;;;;;;27.54;49.43;101062.78;5142376;56;1139140;-67
2022/07/19 21:31:24;;;;;;;14.10;7.55;;;;;;;27.23;49.65;101066.78;5140993;57;1136950;-67
2022/07/19 21:36:36;;;;;;;14.33;8.00;;;;;;;27.08;50.40;101069.77;5141214;57;1137062;-68
2022/07/19 21:41:43;;;;;;;20.33;10.87;;;;;;;26.91;50.74;101070.72;5141063;57;1141076;-67
2022/07/19 21:46:49;;;;;;;19.30;11.47;;;;;;;26.66;51.18;101068.89;5140438;57;1143131;-68
2022/07/19 21:51:54;;;;;;;29.87;14.07;;;;;;;26.59;51.94;101075.16;5172282;56;1143211;-70
2022/07/19 21:57:01;;;;;;;50.85;17.85;;;;;;;26.61;52.96;101074.95;5197587;56;1143455;-68
2022/07/19 22:02:07;;;;;;;14.30;8.45;;;;;;;26.52;53.22;101077.05;5187822;56;1143095;-68
2022/07/19 22:07:14;;;;;;;67.22;25.70;;;;;;;26.42;53.62;101083.44;5209767;56;1141353;-66
2022/07/19 22:12:19;;;;;;;55.28;19.25;;;;;;;26.35;53.95;101073.61;5178284;56;1143218;-67
2022/07/19 22:17:25;;;;;;;85.85;34.08;;;;;;;26.27;54.26;101078.19;5195184;56;1143173;-67
2022/07/19 22:22:31;;;;;;;154.15;57.33;;;;;;;26.22;54.80;101088.81;5161436;56;1143440;-68
2022/07/19 22:27:37;;;;;;;116.97;44.60;;;;;;;26.14;55.07;101095.77;5209584;56;1145281;-67
2022/07/19 22:32:43;;;;;;;68.55;28.12;;;;;;;26.03;55.90;101094.20;5229641;56;1145245;-67
2022/07/19 22:37:49;;;;;;;27.77;11.25;;;;;;;25.99;56.14;101102.42;5214211;56;1143354;-67
2022/07/19 22:42:55;;;;;;;13.43;6.67;;;;;;;25.99;56.52;101096.48;5201820;56;1143259;-67
2022/07/19 22:48:01;;;;;;;14.98;7.40;;;;;;;25.96;56.14;101098.27;5190796;56;1141186;-66
2022/07/19 22:53:13;;;;;;;12.93;6.33;;;;;;;25.90;55.96;101095.86;5157400;56;1141305;-67
2022/07/19 22:58:15;;;;;;;12.33;5.80;;;;;;;25.79;55.66;101099.17;5223294;56;1141288;-67
2022/07/19 23:03:21;;;;;;;17.90;6.25;;;;;;;25.64;55.64;101098.50;5154688;56;1141076;-68
2022/07/19 23:08:26;;;;;;;16.57;7.55;;;;;;;25.45;55.75;101089.74;5205152;56;1141118;-68
2022/07/19 23:13:32;;;;;;;12.10;6.03;;;;;;;25.36;56.08;101093.68;5201056;56;1141114;-68
2022/07/19 23:18:38;;;;;;;11.15;5.37;;;;;;;25.18;55.97;101106.39;5216088;56;1141169;-67